This is the latest recevied weather packets stored in our database for station/object DJ0JJ-11. If no packets are shown the sender has not sent any weather packets the latest 10 day(s).
| Time | Temp. | Humidity | Pressure | Rain* | Wind** | Luminosity | Snow |
|---|---|---|---|---|---|---|---|
| 1777873454 | 12.78° C | 68% | 1016.1 hPa | - | - | - | - |
| 1777872554 | 12.78° C | 69% | 1016.1 hPa | - | - | - | - |
| 1777871654 | 11.67° C | 70% | 1016.1 hPa | - | - | - | - |
| 1777870754 | 12.78° C | 65% | 1015.9 hPa | - | - | - | - |
| 1777869853 | 12.22° C | 66% | 1016 hPa | - | - | - | - |
| 1777868953 | 11.67° C | 68% | 1016.1 hPa | - | - | - | - |
| 1777868053 | 12.22° C | 67% | 1016.1 hPa | - | - | - | - |
| 1777867153 | 12.22° C | 65% | 1016.1 hPa | - | - | - | - |
| 1777866253 | 12.22° C | 65% | 1016 hPa | - | - | - | - |
| 1777865353 | 12.22° C | 65% | 1016.1 hPa | - | - | - | - |
| 1777864453 | 12.22° C | 66% | 1016.1 hPa | - | - | - | - |
| 1777863552 | 12.22° C | 67% | 1016.1 hPa | - | - | - | - |
| 1777862652 | 12.78° C | 65% | 1016.2 hPa | - | - | - | - |
| 1777861752 | 13.33° C | 62% | 1016.2 hPa | - | - | - | - |
| 1777860852 | 13.33° C | 60% | 1016.1 hPa | - | - | - | - |
| 1777859952 | 12.78° C | 63% | 1016.1 hPa | - | - | - | - |
| 1777859052 | 12.78° C | 64% | 1016.3 hPa | - | - | - | - |
| 1777858152 | 13.33° C | 63% | 1016.2 hPa | - | - | - | - |
| 1777857251 | 13.89° C | 60% | 1016.2 hPa | - | - | - | - |
| 1777856351 | 14.44° C | 60% | 1016.2 hPa | - | - | - | - |
| 1777855451 | 15° C | 56% | 1016.1 hPa | - | - | - | - |
| 1777854551 | 15° C | 56% | 1016.1 hPa | - | - | - | - |
| 1777853651 | 15° C | 57% | 1016.2 hPa | - | - | - | - |
| 1777852751 | 15° C | 57% | 1016.1 hPa | - | - | - | - |
| 1777851851 | 15.56° C | 57% | 1016.1 hPa | - | - | - | - |
* Rain since midnight (hover to see other rain measurements)
** Current wind speed in m/s (hover to see current wind gust speed)